Atlantic City, New Jersey
Current Conditions -  °F | °C
As of 12:54 PM on Tuesday 21 Oct 2014 (Local Time) from KACY Reporting Station
Overcast Overcast  
Wind Chill: 66°   Ceiling: 8000
Heat Index: 66°   Visibility: 10mi
Dew Point: 53°   Wind: 5mph
Humidity: 63%   Direction: 260°W
Pressure: 29.84"   Gusts: NA
Location:  39.36°N, 74.43°W
Report Text: KACY 211654Z 26004KT 10SM FEW050 BKN080 OVC110 19/12 A2984 RMK AO2 SLP103 T01890117
Loading
Personal Weather Stations






























Interactive Weather Map New forecast layout! Learn more

10-Day Weather Forecast

Advertisements
Track Severe Weather on mobile